地図

経路データ

SID SEASON NUMBER BASIN SUBBASIN NAME ISO_TIME NATURE LAT LON WMO_WIND WMO_PRES WMO_AGENCY TRACK_TYPE DIST2LAND LANDFALL IFLAG USA_AGENCY USA_ATCF_ID USA_LAT USA_LON USA_RECORD USA_STATUS USA_WIND USA_PRES USA_SSHS USA_R34_NE USA_R34_SE USA_R34_SW USA_R34_NW USA_R50_NE USA_R50_SE USA_R50_SW USA_R50_NW USA_R64_NE USA_R64_SE USA_R64_SW USA_R64_NW USA_POCI USA_ROCI USA_RMW USA_EYE TOKYO_LAT TOKYO_LON TOKYO_GRADE TOKYO_WIND TOKYO_PRES TOKYO_R50_DIR TOKYO_R50_LONG TOKYO_R50_SHORT TOKYO_R30_DIR TOKYO_R30_LONG TOKYO_R30_SHORT TOKYO_LAND CMA_LAT CMA_LON CMA_CAT CMA_WIND CMA_PRES HKO_LAT HKO_LON HKO_CAT HKO_WIND HKO_PRES NEWDELHI_LAT NEWDELHI_LON NEWDELHI_GRADE NEWDELHI_WIND NEWDELHI_PRES NEWDELHI_CI NEWDELHI_DP NEWDELHI_POCI REUNION_LAT REUNION_LON REUNION_TYPE REUNION_WIND REUNION_PRES REUNION_TNUM REUNION_CI REUNION_RMW REUNION_R34_NE REUNION_R34_SE REUNION_R34_SW REUNION_R34_NW REUNION_R50_NE REUNION_R50_SE REUNION_R50_SW REUNION_R50_NW REUNION_R64_NE REUNION_R64_SE REUNION_R64_SW REUNION_R64_NW BOM_LAT BOM_LON BOM_TYPE BOM_WIND BOM_PRES BOM_TNUM BOM_CI BOM_RMW BOM_R34_NE BOM_R34_SE BOM_R34_SW BOM_R34_NW BOM_R50_NE BOM_R50_SE BOM_R50_SW BOM_R50_NW BOM_R64_NE BOM_R64_SE BOM_R64_SW BOM_R64_NW BOM_ROCI BOM_POCI BOM_EYE BOM_POS_METHOD BOM_PRES_METHOD NADI_LAT NADI_LON NADI_CAT NADI_WIND NADI_PRES WELLINGTON_LAT WELLINGTON_LON WELLINGTON_WIND WELLINGTON_PRES DS824_LAT DS824_LON DS824_STAGE DS824_WIND DS824_PRES TD9636_LAT TD9636_LON TD9636_STAGE TD9636_WIND TD9636_PRES TD9635_LAT TD9635_LON TD9635_WIND TD9635_PRES TD9635_ROCI NEUMANN_LAT NEUMANN_LON NEUMANN_CLASS NEUMANN_WIND NEUMANN_PRES MLC_LAT MLC_LON MLC_CLASS MLC_WIND MLC_PRES USA_GUST BOM_GUST BOM_GUST_PER REUNION_GUST REUNION_GUST_PER USA_SEAHGT USA_SEARAD_NE USA_SEARAD_SE USA_SEARAD_SW USA_SEARAD_NW STORM_SPEED STORM_DIR
1944268N24141 1944 61 WP MM NOT_NAMED 1944-09-23 12:00:00 NR 23.8000 140.500 main 1165 1123 __________O___ -1 23.8000 140.500 3 9 0
1944268N24141 1944 61 WP MM NOT_NAMED 1944-09-23 15:00:00 NR 24.2580 140.484 main 1113 1072 __________P___ -1 24.2580 140.484 3 9 358
1944268N24141 1944 61 WP MM NOT_NAMED 1944-09-23 18:00:00 NR 24.7228 140.465 main 1072 1017 __________P___ -1 24.7228 140.465 3 9 358
1944268N24141 1944 61 WP MM NOT_NAMED 1944-09-23 21:00:00 NR 25.2012 140.438 main 1017 967 __________P___ -1 25.2012 140.438 3 10 357
1944268N24141 1944 61 WP MM NOT_NAMED 1944-09-24 00:00:00 NR 25.7000 140.400 main 967 917 __________O___ -1 25.7000 140.400 4 10 356
1944268N24141 1944 61 WP MM NOT_NAMED 1944-09-24 03:00:00 NR 26.2177 140.354 main 917 863 __________P___ -1 26.2177 140.354 4 10 357
1944268N24141 1944 61 WP MM NOT_NAMED 1944-09-24 06:00:00 NR 26.7193 140.331 main 863 824 __________P___ -1 26.7193 140.331 4 9 1
1944268N24141 1944 61 WP MM NOT_NAMED 1944-09-24 09:00:00 NR 27.1612 140.367 main 820 797 __________P___ -1 27.1612 140.367 4 8 11
1944268N24141 1944 61 WP MM NOT_NAMED 1944-09-24 12:00:00 NR 27.5000 140.500 main 797 787 __________O___ -1 27.5000 140.500 4 6 36
1944268N24141 1944 61 WP MM NOT_NAMED 1944-09-24 15:00:00 NR 27.6713 140.783 main 792 792 __________P___ -1 27.6713 140.783 4 6 68
1944268N24141 1944 61 WP MM NOT_NAMED 1944-09-24 18:00:00 NR 27.7409 141.161 main 802 794 __________P___ -1 27.7409 141.161 4 7 82
1944268N24141 1944 61 WP MM NOT_NAMED 1944-09-24 21:00:00 NR 27.7650 141.583 main 803 803 __________P___ -1 27.7650 141.583 4 7 85
1944268N24141 1944 61 WP MM NOT_NAMED 1944-09-25 00:00:00 NR 27.8000 142.000 main 816 810 __________O___ -1 27.8000 142.000 4 7 79
1944268N24141 1944 61 WP MM NOT_NAMED 1944-09-25 03:00:00 NR 27.9040 142.368 main 815 808 __________P___ -1 27.9040 142.368 4 7 70
1944268N24141 1944 61 WP MM NOT_NAMED 1944-09-25 06:00:00 NR 28.0326 142.718 main 814 802 __________P___ -1 28.0326 142.718 4 7 64
1944268N24141 1944 61 WP MM NOT_NAMED 1944-09-25 09:00:00 NR 28.1948 143.034 main 802 792 __________P___ -1 28.1948 143.034 4 6 54
1944268N24141 1944 61 WP MM NOT_NAMED 1944-09-25 12:00:00 NR 28.4000 143.300 main 792 776 __________O___ -1 28.4000 143.300 4 6 42
1944268N24141 1944 61 WP MM NOT_NAMED 1944-09-25 15:00:00 NR 28.6539 143.507 main 770 754 __________P___ -1 28.6539 143.507 4 6 30
1944268N24141 1944 61 WP MM NOT_NAMED 1944-09-25 18:00:00 NR 28.9473 143.665 main 758 733 __________P___ -1 28.9473 143.665 4 7 22
1944268N24141 1944 61 WP MM NOT_NAMED 1944-09-25 21:00:00 NR 29.2671 143.790 main 724 700 __________P___ -1 29.2671 143.790 4 7 17
1944268N24141 1944 61 WP MM NOT_NAMED 1944-09-26 00:00:00 NR 29.6000 143.900 main 700 __________O___ -1 29.6000 143.900 4 7 16

デジタル台風データ・検索

IBTrACS Databaseについて

本データベースは、米国NOAAが公開する1842年以降の世界の熱帯低気圧のベストトラックデータアーカイブInternational Best Track Archive for Climate Stewardship (IBTrACS)を、ウェブで閲覧しやすい形式に変換したものです。

最終更新日:2021-12-03